createdAt,value
2023-07-25T00:00:26.711Z,78.71
2023-07-25T00:05:51.650Z,78.36
2023-07-25T00:10:55.989Z,78.58
2023-07-25T00:16:00.246Z,78.69
2023-07-25T00:21:05.174Z,79.41
2023-07-25T00:26:09.111Z,79.96
2023-07-25T00:31:13.019Z,79.94
2023-07-25T00:36:17.225Z,80.07
2023-07-25T00:41:20.984Z,80.23
2023-07-25T00:46:26.096Z,80.06
2023-07-25T00:51:30.315Z,80.19
2023-07-25T00:56:35.040Z,80.10
2023-07-25T01:01:39.875Z,79.97
2023-07-25T01:06:44.840Z,80.00
2023-07-25T01:11:48.607Z,79.90
2023-07-25T01:16:52.683Z,80.03
2023-07-25T01:21:58.783Z,80.11
2023-07-25T01:27:03.720Z,80.37
2023-07-25T01:32:08.900Z,80.49
2023-07-25T01:37:13.130Z,80.41
2023-07-25T01:42:17.135Z,80.68
2023-07-25T01:47:28.201Z,80.90
2023-07-25T01:52:34.234Z,80.90
2023-07-25T01:57:38.038Z,80.86
2023-07-25T02:02:42.628Z,80.79
2023-07-25T02:07:47.445Z,80.79
2023-07-25T02:12:51.572Z,80.61
2023-07-25T02:17:55.704Z,80.60
2023-07-25T02:27:15.038Z,80.65
2023-07-25T02:32:19.111Z,80.79
2023-07-25T02:37:23.050Z,81.13
2023-07-25T02:42:27.121Z,81.63
2023-07-25T02:47:32.241Z,82.10
2023-07-25T02:52:36.324Z,82.33
2023-07-25T02:57:40.350Z,82.69
2023-07-25T03:02:45.051Z,83.13
2023-07-25T03:07:49.382Z,83.32
2023-07-25T03:12:54.387Z,82.93
2023-07-25T03:17:58.602Z,82.58
2023-07-25T03:23:02.826Z,82.32
2023-07-25T03:28:06.839Z,82.17
2023-07-25T03:33:10.902Z,81.93
2023-07-25T03:38:14.958Z,81.68
2023-07-25T03:43:18.977Z,81.67
2023-07-25T03:48:23.200Z,81.68
2023-07-25T03:53:27.055Z,81.75
2023-07-25T03:58:31.170Z,81.79
2023-07-25T04:03:35.656Z,81.71
2023-07-25T04:08:40.004Z,81.57
2023-07-25T04:13:44.695Z,81.32
2023-07-25T04:18:49.027Z,81.29
2023-07-25T04:23:53.070Z,81.11
2023-07-25T04:28:57.422Z,80.80
2023-07-25T04:34:01.589Z,80.55
2023-07-25T04:39:05.994Z,80.43
2023-07-25T04:44:10.425Z,80.31
2023-07-25T04:49:14.671Z,80.04
2023-07-25T04:54:18.800Z,79.74
2023-07-25T04:59:22.923Z,79.34
2023-07-25T05:04:26.858Z,79.00
2023-07-25T05:09:31.096Z,78.78
2023-07-25T05:14:35.737Z,78.32
2023-07-25T05:19:44.623Z,77.82
2023-07-25T05:24:51.650Z,77.22
2023-07-25T05:29:58.487Z,76.64
2023-07-25T05:35:04.355Z,76.18
2023-07-25T05:40:09.190Z,75.88
2023-07-25T05:45:14.713Z,75.37
2023-07-25T05:50:20.957Z,74.47
2023-07-25T05:55:27.412Z,73.65
2023-07-25T06:00:31.854Z,72.20
2023-07-25T06:05:38.806Z,71.87
2023-07-25T06:10:43.912Z,71.81
2023-07-25T06:15:49.617Z,70.21
2023-07-25T06:20:53.847Z,69.18
2023-07-25T06:25:58.088Z,68.68
2023-07-25T06:31:04.383Z,68.47
2023-07-25T06:36:08.524Z,68.23
2023-07-25T06:41:12.946Z,68.00
2023-07-25T06:46:17.193Z,67.97
2023-07-25T06:51:22.237Z,68.25
2023-07-25T06:56:26.270Z,68.46
2023-07-25T07:01:30.926Z,67.94
2023-07-25T07:06:35.177Z,68.07
2023-07-25T07:11:41.062Z,68.04
2023-07-25T07:16:45.232Z,67.55
2023-07-25T07:21:49.712Z,67.71
2023-07-25T07:26:54.258Z,67.46
2023-07-25T07:31:58.580Z,67.75
2023-07-25T07:37:03.044Z,67.15
2023-07-25T07:42:07.474Z,66.21
2023-07-25T07:47:11.710Z,64.88
2023-07-25T07:52:25.786Z,63.49
2023-07-25T07:57:46.496Z,62.61
2023-07-25T08:02:53.239Z,62.51
2023-07-25T08:07:57.803Z,62.55
2023-07-25T08:13:01.979Z,61.78
2023-07-25T08:18:06.192Z,60.97
2023-07-25T08:23:10.538Z,60.69
2023-07-25T08:28:15.203Z,58.82
2023-07-25T08:33:21.489Z,57.65
2023-07-25T08:38:29.898Z,57.13
2023-07-25T08:43:40.977Z,57.33
2023-07-25T08:48:45.137Z,57.47
2023-07-25T08:54:07.234Z,56.08
2023-07-25T08:59:14.271Z,55.20
2023-07-25T09:04:21.859Z,54.54
2023-07-25T09:09:26.153Z,53.67
2023-07-25T09:14:30.602Z,54.13
2023-07-25T09:19:35.251Z,55.03
2023-07-25T09:24:41.566Z,53.83
2023-07-25T09:29:48.154Z,53.88
2023-07-25T09:35:04.228Z,54.12
2023-07-25T09:40:13.192Z,53.69
2023-07-25T09:45:17.332Z,52.85
2023-07-25T09:50:27.964Z,50.96
2023-07-25T09:55:33.940Z,49.80
2023-07-25T10:00:42.454Z,49.08
2023-07-25T10:05:49.793Z,48.70
2023-07-25T10:10:57.351Z,50.57
2023-07-25T10:16:07.145Z,50.03
2023-07-25T10:21:13.383Z,49.50
2023-07-25T10:26:21.586Z,50.34
2023-07-25T10:31:37.294Z,51.68
2023-07-25T10:36:41.374Z,52.38
2023-07-25T10:41:45.603Z,52.72
2023-07-25T10:46:50.673Z,53.61
2023-07-25T10:51:57.971Z,53.53
2023-07-25T10:57:10.886Z,53.07
2023-07-25T11:02:33.329Z,53.14
2023-07-25T11:07:37.567Z,52.49
2023-07-25T11:12:41.536Z,52.13
2023-07-25T11:17:45.586Z,51.45
2023-07-25T11:22:55.264Z,51.75
2023-07-25T11:27:59.553Z,50.56
2023-07-25T11:33:04.109Z,51.19
2023-07-25T11:38:09.490Z,51.51
2023-07-25T11:43:14.718Z,50.28
2023-07-25T11:48:21.828Z,50.20
2023-07-25T11:53:29.926Z,50.09
2023-07-25T11:58:36.660Z,49.31
2023-07-25T12:03:51.383Z,50.01
2023-07-25T12:08:55.502Z,50.56
2023-07-25T12:13:59.948Z,51.05
2023-07-25T12:19:13.862Z,49.28
2023-07-25T12:24:18.355Z,47.74
2023-07-25T12:29:26.686Z,46.13
2023-07-25T12:34:30.754Z,45.38
2023-07-25T12:39:34.998Z,45.49
2023-07-25T12:44:39.466Z,45.53
2023-07-25T12:49:44.331Z,45.28
2023-07-25T12:54:48.941Z,44.39
2023-07-25T12:59:52.975Z,44.31
2023-07-25T13:05:00.742Z,43.19
2023-07-25T13:10:05.592Z,43.32
2023-07-25T13:15:10.515Z,43.97
2023-07-25T13:20:14.637Z,43.69
2023-07-25T13:25:18.979Z,43.51
2023-07-25T13:30:23.218Z,42.83
2023-07-25T13:35:27.970Z,42.50
2023-07-25T13:40:32.310Z,43.44
2023-07-25T13:45:51.170Z,44.04
2023-07-25T13:50:56.539Z,44.60
2023-07-25T13:56:01.384Z,44.25
2023-07-25T14:01:05.973Z,44.88
2023-07-25T14:06:10.401Z,45.97
2023-07-25T14:11:15.331Z,46.47
2023-07-25T14:16:19.876Z,46.85
2023-07-25T14:21:24.216Z,46.97
2023-07-25T14:26:28.819Z,47.77
2023-07-25T14:31:35.626Z,48.74
2023-07-25T14:36:39.980Z,48.99
2023-07-25T14:41:44.430Z,48.94
2023-07-25T14:46:49.120Z,49.37
2023-07-25T14:51:53.305Z,49.70
2023-07-25T14:56:57.299Z,50.06
2023-07-25T15:02:01.612Z,50.13
2023-07-25T15:07:06.912Z,51.23
2023-07-25T15:12:11.698Z,53.14
2023-07-25T15:17:24.201Z,53.94
2023-07-25T15:22:29.431Z,54.38
2023-07-25T15:27:33.737Z,54.91
2023-07-25T15:32:38.232Z,55.22
2023-07-25T15:37:42.731Z,55.44
2023-07-25T15:42:47.144Z,55.21
2023-07-25T15:47:51.604Z,54.76
2023-07-25T15:52:56.233Z,54.83
2023-07-25T15:58:00.778Z,55.34
2023-07-25T16:03:05.519Z,56.32
2023-07-25T16:08:09.984Z,57.33
2023-07-25T16:13:16.389Z,57.72
2023-07-25T16:18:20.489Z,58.47
2023-07-25T16:23:25.041Z,58.97
2023-07-25T16:28:39.165Z,59.76
2023-07-25T16:33:47.157Z,60.71
2023-07-25T16:38:56.962Z,61.24
2023-07-25T16:44:04.759Z,62.11
2023-07-25T16:49:09.286Z,62.78
2023-07-25T16:54:13.403Z,63.31
2023-07-25T16:59:17.733Z,63.58
2023-07-25T17:04:21.745Z,63.62
2023-07-25T17:09:25.981Z,63.60
2023-07-25T17:14:30.127Z,63.85
2023-07-25T17:19:35.073Z,64.07
2023-07-25T17:24:39.923Z,64.25
2023-07-25T17:29:44.374Z,64.35
2023-07-25T17:34:48.499Z,64.65
2023-07-25T17:39:52.698Z,64.97
2023-07-25T17:51:11.688Z,65.72
2023-07-25T17:56:15.906Z,65.93
2023-07-25T18:01:20.067Z,66.44
2023-07-25T18:06:24.478Z,66.76
2023-07-25T18:11:28.831Z,66.85
2023-07-25T18:16:33.661Z,67.15
2023-07-25T18:21:37.902Z,67.43
2023-07-25T18:26:44.003Z,67.88
2023-07-25T18:31:48.692Z,68.18
2023-07-25T18:36:52.884Z,68.65
2023-07-25T18:41:57.299Z,69.04
2023-07-25T18:47:01.310Z,69.24
2023-07-25T18:52:06.653Z,69.52
2023-07-25T18:57:21.507Z,69.71
2023-07-25T19:02:25.679Z,70.00
2023-07-25T19:07:30.266Z,70.18
2023-07-25T19:12:34.922Z,70.50
2023-07-25T19:17:39.602Z,70.53
2023-07-25T19:22:44.018Z,70.83
2023-07-25T19:27:49.868Z,71.25
2023-07-25T19:32:54.060Z,71.67
2023-07-25T19:37:58.234Z,71.68
2023-07-25T19:43:02.999Z,71.67
2023-07-25T19:48:08.035Z,72.07
2023-07-25T19:53:16.898Z,72.44
2023-07-25T19:58:21.960Z,72.80
2023-07-25T20:03:26.121Z,72.85
2023-07-25T20:08:30.365Z,73.07
2023-07-25T20:13:37.132Z,73.39
2023-07-25T20:18:41.748Z,73.79
2023-07-25T20:23:46.089Z,74.14
2023-07-25T20:28:50.851Z,74.61
2023-07-25T20:33:55.407Z,74.71
2023-07-25T20:38:59.917Z,74.83
2023-07-25T20:44:04.182Z,75.11
2023-07-25T20:49:08.407Z,75.26
2023-07-25T20:54:13.146Z,75.27
2023-07-25T20:59:17.602Z,75.37
2023-07-25T21:04:22.029Z,75.57
2023-07-25T21:09:26.275Z,75.78
2023-07-25T21:14:30.894Z,75.82
2023-07-25T21:19:35.366Z,75.54
2023-07-25T21:24:39.954Z,75.32
2023-07-25T21:29:44.231Z,75.53
2023-07-25T21:34:48.982Z,75.82
2023-07-25T21:39:53.744Z,76.04
2023-07-25T21:44:57.874Z,76.21
2023-07-25T21:50:02.419Z,76.39
2023-07-25T21:55:07.523Z,76.38
2023-07-25T22:00:13.142Z,76.30
2023-07-25T22:05:17.399Z,76.44
2023-07-25T22:10:21.815Z,76.43
2023-07-25T22:15:25.944Z,76.48
2023-07-25T22:20:38.271Z,76.64
2023-07-25T22:25:50.994Z,76.64
2023-07-25T22:30:55.851Z,76.42
2023-07-25T22:36:00.127Z,76.54
2023-07-25T22:41:05.774Z,76.91
2023-07-25T22:46:10.243Z,77.11
2023-07-25T22:51:14.441Z,77.14
2023-07-25T22:56:18.792Z,77.15
2023-07-25T23:01:23.469Z,77.16
2023-07-25T23:06:27.984Z,77.27
2023-07-25T23:11:32.318Z,77.33
2023-07-25T23:16:36.440Z,77.44
2023-07-25T23:21:42.209Z,77.53
2023-07-25T23:26:46.439Z,77.74
2023-07-25T23:31:50.889Z,77.89
2023-07-25T23:36:56.365Z,78.04
2023-07-25T23:42:00.506Z,78.04
2023-07-25T23:47:06.023Z,77.93
2023-07-25T23:52:10.405Z,78.25
2023-07-25T23:57:14.538Z,78.69
